KENV/ENV METAR and TAF weather

Enter ICAO airport designator
Station Type Date Time Source
KENV METAR 2019/12/11 11:56 UTC NOAA

KENV 111156Z AUTO 00000KT 10SM OVC015 M02/M03 A3019 RMK AO2 SLP252 T10221028 11022 21039 58006 FZRANO


Station Type Date Time Source
KENV Decoded METAR 2019/12/11 11:56 UTC NOAA

Wendover / Air Force Auxillary Field, UT, United States (KENV) 40-44N 114-02W 1292M
Dec 11, 2019 - 06:56 AM EST / 2019.12.11 1156 UTC
Wind: Calm:0
Visibility: 10 mile(s):0
Sky conditions: overcast
Temperature: 28.0 F (-2.2 C)
Dew Point: 27.0 F (-2.8 C)
Relative Humidity: 95%
Pressure (altimeter): 30.19 in. Hg (1022 hPa)
Pressure tendency: 0.02 inches (0.6 hPa) lower than three hours ago
ob: KENV 111156Z AUTO 00000KT 10SM OVC015 M02/M03 A3019 RMK AO2 SLP252 T10221028 11022 21039 58006 FZRANO
cycle: 12

Station Type Date Time Source
KENV TAF 2019/12/11 12:40 UTC NOAA

TAF KENV 111137Z 1112/1212 VRB03KT P6SM OVC015
FM111700 VRB03KT P6SM SCT020 OVC080
FM112100 VRB03KT P6SM SCT100 BKN200
FM121000 VRB03KT P6SM VCSH SCT040 OVC080

Example: see airport list